createdAt,value
2019-05-13T00:01:45.680Z,103353.20
2019-05-13T00:06:09.741Z,103351.55
2019-05-13T00:10:34.979Z,103355.92
2019-05-13T00:14:59.368Z,103362.89
2019-05-13T00:19:23.332Z,103362.52
2019-05-13T00:23:46.590Z,103364.72
2019-05-13T00:28:08.538Z,103366.56
2019-05-13T00:32:30.103Z,103361.03
2019-05-13T00:37:07.306Z,103371.88
2019-05-13T00:41:15.700Z,103373.23
2019-05-13T00:45:37.448Z,103364.22
2019-05-13T00:49:59.016Z,103367.29
2019-05-13T00:54:23.651Z,103362.56
2019-05-13T00:58:47.595Z,103365.63
2019-05-13T01:03:13.920Z,103364.34
2019-05-13T01:07:37.585Z,103361.33
2019-05-13T01:12:04.399Z,103361.35
2019-05-13T01:16:28.523Z,103364.80
2019-05-13T01:20:53.815Z,103366.54
2019-05-13T01:25:18.131Z,103366.55
2019-05-13T01:29:43.490Z,103370.89
2019-05-13T01:34:07.620Z,103371.34
2019-05-13T01:38:33.944Z,103369.61
2019-05-13T01:42:57.868Z,103379.11
2019-05-13T01:47:23.561Z,103373.49
2019-05-13T01:51:47.484Z,103371.76
2019-05-13T01:56:13.991Z,103369.60
2019-05-13T02:00:38.038Z,103369.56
2019-05-13T02:05:03.983Z,103374.73
2019-05-13T02:09:27.890Z,103376.03
2019-05-13T02:13:53.977Z,103376.02
2019-05-13T02:18:17.497Z,103384.62
2019-05-13T02:22:44.185Z,103384.19
2019-05-13T02:27:07.397Z,103394.09
2019-05-13T02:31:41.303Z,103398.38
2019-05-13T02:35:59.022Z,103398.79
2019-05-13T02:40:23.211Z,103398.79
2019-05-13T02:44:47.415Z,103395.34
2019-05-13T02:49:12.265Z,103401.36
2019-05-13T02:53:36.502Z,103394.88
2019-05-13T02:58:03.232Z,103401.28
2019-05-13T03:02:26.608Z,103402.09
2019-05-13T03:06:52.103Z,103406.78
2019-05-13T03:11:16.557Z,103406.33
2019-05-13T03:15:51.510Z,103409.72
2019-05-13T03:20:16.814Z,103407.94
2019-05-13T03:24:42.996Z,103407.94
2019-05-13T03:29:06.500Z,103413.94
2019-05-13T03:33:35.930Z,103419.09
2019-05-13T03:37:57.488Z,103422.94
2019-05-13T03:42:25.146Z,103425.89
2019-05-13T03:46:52.891Z,103430.17
2019-05-13T03:51:17.671Z,103437.46
2019-05-13T03:55:43.404Z,103432.71
2019-05-13T04:00:09.139Z,103437.41
2019-05-13T04:04:33.106Z,103439.53
2019-05-13T04:09:18.644Z,103446.85
2019-05-13T04:13:23.717Z,103451.98
2019-05-13T04:17:47.775Z,103451.14
2019-05-13T04:22:12.893Z,103452.43
2019-05-13T04:26:35.693Z,103448.15
2019-05-13T05:19:37.970Z,103469.11
2019-05-13T05:24:14.470Z,103475.27
2019-05-13T05:29:13.861Z,103477.48
2019-05-13T05:33:52.386Z,103484.41
2019-05-13T05:38:43.944Z,103486.16
2019-05-13T05:43:11.497Z,103487.47
2019-05-13T05:47:37.940Z,103481.41
2019-05-13T05:52:06.652Z,103483.09
2019-05-13T05:56:33.088Z,103479.59
2019-05-13T06:01:02.442Z,103483.00
2019-05-13T06:05:27.651Z,103495.91
2019-05-13T06:09:51.688Z,103491.05
2019-05-13T06:14:15.831Z,103487.03
2019-05-13T06:18:41.556Z,103488.67
2019-05-13T06:23:05.785Z,103487.20
2019-05-13T06:27:31.772Z,103484.85
2019-05-13T06:31:55.892Z,103490.20
2019-05-13T06:36:22.142Z,103486.42
2019-05-13T06:40:59.375Z,103489.44
2019-05-13T06:45:12.427Z,103491.17
2019-05-13T06:49:36.960Z,103483.50
2019-05-13T06:54:02.321Z,103480.87
2019-05-13T06:58:26.481Z,103477.89
2019-05-13T07:02:51.710Z,103483.81
2019-05-13T07:07:17.349Z,103490.66
2019-05-13T07:11:41.709Z,103482.91
2019-05-13T07:16:05.959Z,103478.16
2019-05-13T07:20:32.208Z,103480.53
2019-05-13T07:24:54.380Z,103483.18
2019-05-13T07:29:17.643Z,103497.16
2019-05-13T07:33:42.658Z,103499.66
2019-05-13T07:38:04.648Z,103504.44
2019-05-13T07:42:31.243Z,103507.95
2019-05-13T07:46:55.265Z,103509.72
2019-05-13T07:51:22.005Z,103508.59
2019-05-13T07:55:45.344Z,103513.52
2019-05-13T08:00:12.466Z,103515.88
2019-05-13T08:04:36.438Z,103509.59
2019-05-13T08:09:01.670Z,103509.70
2019-05-13T08:13:26.516Z,103509.70
2019-05-13T08:17:52.503Z,103492.17
2019-05-13T08:22:16.176Z,103492.17
2019-05-13T08:26:47.530Z,103498.28
2019-05-13T08:31:05.985Z,103498.28
2019-05-13T08:35:31.483Z,103498.94
2019-05-13T08:39:56.521Z,103498.94
2019-05-13T08:44:21.665Z,103505.58
2019-05-13T08:48:44.438Z,103502.78
2019-05-13T08:53:07.265Z,103501.28
2019-05-13T08:57:31.548Z,103499.09
2019-05-13T09:01:54.459Z,103498.27
2019-05-13T09:06:17.103Z,103509.94
2019-05-13T09:10:41.350Z,103508.53
2019-05-13T09:15:05.127Z,103507.67
2019-05-13T09:19:27.858Z,103506.55
2019-05-13T09:23:51.556Z,103500.96
2019-05-13T09:28:14.415Z,103502.33
2019-05-13T09:32:37.222Z,103506.58
2019-05-13T09:37:02.441Z,103510.38
2019-05-13T09:41:23.913Z,103511.33
2019-05-13T09:45:46.345Z,103511.13
2019-05-13T09:50:27.185Z,103499.73
2019-05-13T09:54:34.473Z,103493.78
2019-05-13T09:58:56.904Z,103495.97
2019-05-13T10:03:26.602Z,103484.52
2019-05-13T10:07:44.000Z,103481.87
2019-05-13T10:12:07.204Z,103486.64
2019-05-13T10:16:31.354Z,103487.05
2019-05-13T10:20:58.307Z,103481.54
2019-05-13T10:25:18.518Z,103473.59
2019-05-13T10:29:42.550Z,103481.41
2019-05-13T10:34:06.998Z,103481.25
2019-05-13T10:38:32.868Z,103479.94
2019-05-13T10:42:56.913Z,103479.67
2019-05-13T10:47:22.691Z,103478.81
2019-05-13T10:51:44.701Z,103476.04
2019-05-13T10:56:07.498Z,103464.77
2019-05-13T11:00:32.082Z,103460.30
2019-05-13T11:04:54.824Z,103454.81
2019-05-13T11:09:17.559Z,103444.92
2019-05-13T11:13:52.228Z,103446.05
2019-05-13T11:18:04.334Z,103436.48
2019-05-13T11:22:27.481Z,103439.44
2019-05-13T11:26:53.192Z,103437.18
2019-05-13T11:31:15.665Z,103436.75
2019-05-13T11:35:38.335Z,103433.88
2019-05-13T11:40:02.888Z,103430.83
2019-05-13T11:44:25.356Z,103425.75
2019-05-13T11:48:47.790Z,103416.44
2019-05-13T11:53:30.193Z,103418.69
2019-05-13T11:57:34.337Z,103417.97
2019-05-13T12:01:57.367Z,103408.38
2019-05-13T12:06:23.252Z,103406.56
2019-05-13T12:10:45.418Z,103395.49
2019-05-13T12:15:35.582Z,103382.78
2019-05-13T12:19:32.545Z,103392.72
2019-05-13T12:23:55.576Z,103384.45
2019-05-13T12:28:18.180Z,103380.72
2019-05-13T12:32:43.783Z,103369.67
2019-05-13T12:37:05.516Z,103369.37
2019-05-13T12:41:28.312Z,103349.83
2019-05-13T12:45:53.362Z,103347.34
2019-05-13T12:50:15.670Z,103347.34
2019-05-13T12:54:38.157Z,103353.67
2019-05-13T12:59:03.038Z,103349.56
2019-05-13T13:03:25.655Z,103342.83
2019-05-13T13:08:13.808Z,103338.98
2019-05-13T13:12:14.108Z,103334.06
2019-05-13T13:16:42.150Z,103334.06
2019-05-13T13:21:07.744Z,103331.84
2019-05-13T13:25:33.886Z,103325.27
2019-05-13T13:30:03.037Z,103320.17
2019-05-13T13:34:26.025Z,103322.91
2019-05-13T13:38:48.594Z,103311.94
2019-05-13T13:43:13.114Z,103304.66
2019-05-13T13:47:37.280Z,103311.68
2019-05-13T13:52:01.081Z,103297.77
2019-05-13T13:56:25.767Z,103293.79
2019-05-13T14:01:01.838Z,103290.33
2019-05-13T14:05:16.397Z,103286.88
2019-05-13T14:09:40.365Z,103287.16
2019-05-13T14:14:05.998Z,103297.48
2019-05-13T14:18:31.742Z,103285.02
2019-05-13T14:22:57.959Z,103282.53
2019-05-13T14:27:22.449Z,103286.47
2019-05-13T14:31:46.662Z,103277.19
2019-05-13T14:36:12.303Z,103267.05
2019-05-13T14:40:36.535Z,103262.46
2019-05-13T14:45:01.889Z,103254.08
2019-05-13T14:49:26.520Z,103251.42
2019-05-13T14:53:52.007Z,103248.62
2019-05-13T14:58:16.423Z,103248.56
2019-05-13T15:02:42.135Z,103255.08
2019-05-13T15:07:06.015Z,103240.13
2019-05-13T15:11:32.195Z,103248.45
2019-05-13T15:15:56.099Z,103243.86
2019-05-13T15:20:21.954Z,103234.77
2019-05-13T15:24:45.740Z,103238.47
2019-05-13T15:29:11.445Z,103232.98
2019-05-13T15:33:36.109Z,103236.09
2019-05-13T15:38:01.358Z,103236.09
2019-05-13T15:42:25.476Z,103236.95
2019-05-13T15:46:52.169Z,103233.03
2019-05-13T15:51:15.351Z,103237.52
2019-05-13T15:55:39.435Z,103222.87
2019-05-13T16:00:04.470Z,103226.13
2019-05-13T16:04:28.672Z,103226.13
2019-05-13T16:08:52.754Z,103227.11
2019-05-13T16:13:16.851Z,103221.29
2019-05-13T16:17:44.098Z,103216.55
2019-05-13T16:22:06.656Z,103221.70
2019-05-13T16:26:31.895Z,103220.08
2019-05-13T16:30:55.771Z,103212.70
2019-05-13T16:35:21.446Z,103221.31
2019-05-13T16:39:45.703Z,103214.46
2019-05-13T16:44:11.943Z,103214.46
2019-05-13T16:48:35.684Z,103203.46
2019-05-13T16:53:01.707Z,103204.44
2019-05-13T16:57:25.039Z,103201.26
2019-05-13T17:01:51.099Z,103209.69
2019-05-13T17:06:14.675Z,103203.42
2019-05-13T17:10:38.502Z,103197.78
2019-05-13T17:15:02.725Z,103187.55
2019-05-13T17:19:28.013Z,103186.03
2019-05-13T17:23:52.426Z,103200.92
2019-05-13T17:28:16.744Z,103202.06
2019-05-13T17:32:40.848Z,103206.52
2019-05-13T17:37:05.878Z,103199.64
2019-05-13T17:41:31.946Z,103205.78
2019-05-13T17:45:55.206Z,103210.34
2019-05-13T17:50:19.158Z,103205.02
2019-05-13T17:54:42.978Z,103203.09
2019-05-13T17:59:07.081Z,103202.59
2019-05-13T18:03:31.977Z,103214.80
2019-05-13T18:07:57.310Z,103210.34
2019-05-13T18:12:22.334Z,103210.34
2019-05-13T18:16:46.291Z,103211.47
2019-05-13T18:21:11.939Z,103202.64
2019-05-13T18:25:36.279Z,103213.69
2019-05-13T18:30:02.109Z,103211.52
2019-05-13T18:34:25.701Z,103209.39
2019-05-13T18:38:49.565Z,103206.62
2019-05-13T18:43:13.665Z,103213.22
2019-05-13T18:47:38.266Z,103214.60
2019-05-13T18:52:02.168Z,103219.09
2019-05-13T18:56:26.187Z,103212.98
2019-05-13T19:00:52.205Z,103214.77
2019-05-13T19:05:15.844Z,103226.58
2019-05-13T19:09:41.728Z,103227.30
2019-05-13T19:14:05.747Z,103231.44
2019-05-13T19:18:28.175Z,103238.70
2019-05-13T19:22:51.796Z,103244.37
2019-05-13T19:27:15.711Z,103239.03
2019-05-13T19:31:38.144Z,103244.47
2019-05-13T19:36:01.583Z,103235.81
2019-05-13T19:40:24.012Z,103235.81
2019-05-13T19:44:46.506Z,103231.32
2019-05-13T19:49:09.320Z,103235.61
2019-05-13T19:53:32.126Z,103235.91
2019-05-13T19:57:54.861Z,103235.88
2019-05-13T20:02:17.583Z,103230.02
2019-05-13T20:06:41.456Z,103242.90
2019-05-13T20:11:04.198Z,103241.55
2019-05-13T20:15:28.332Z,103243.73
2019-05-13T20:19:53.648Z,103252.91
2019-05-13T20:24:17.840Z,103250.06
2019-05-13T20:28:42.044Z,103258.28
2019-05-13T20:33:06.603Z,103252.41
2019-05-13T20:37:32.142Z,103252.28
2019-05-13T20:41:57.186Z,103258.30
2019-05-13T20:46:23.227Z,103259.32
2019-05-13T20:50:46.853Z,103253.44
2019-05-13T20:55:11.015Z,103254.11
2019-05-13T20:59:34.826Z,103253.30
2019-05-13T21:03:58.611Z,103257.45
2019-05-13T21:08:22.473Z,103253.97
2019-05-13T21:12:46.353Z,103252.07
2019-05-13T21:17:12.203Z,103256.81
2019-05-13T21:21:36.101Z,103254.55
2019-05-13T21:26:01.590Z,103248.69
2019-05-13T21:30:25.667Z,103249.61
2019-05-13T21:34:51.628Z,103241.56
2019-05-13T21:39:15.686Z,103243.74
2019-05-13T21:43:41.375Z,103243.14
2019-05-13T21:48:06.754Z,103242.31
2019-05-13T21:52:32.362Z,103243.27
2019-05-13T21:56:56.723Z,103247.23
2019-05-13T22:01:23.229Z,103249.48
2019-05-13T22:05:46.534Z,103244.02
2019-05-13T22:10:10.824Z,103250.39
2019-05-13T22:14:34.685Z,103248.77
2019-05-13T22:18:58.564Z,103249.72
2019-05-13T22:23:22.704Z,103244.63
2019-05-13T22:27:46.569Z,103239.97
2019-05-13T22:32:11.295Z,103247.47
2019-05-13T22:36:34.358Z,103234.95
2019-05-13T22:40:57.116Z,103224.60
2019-05-13T22:45:21.770Z,103219.08
2019-05-13T22:49:45.086Z,103219.08
2019-05-13T22:54:11.637Z,103218.36
2019-05-13T22:58:34.775Z,103210.62
2019-05-13T23:02:58.613Z,103205.52
2019-05-13T23:07:22.942Z,103203.86
2019-05-13T23:11:46.735Z,103214.75
2019-05-13T23:16:11.508Z,103211.38
2019-05-13T23:20:35.408Z,103211.38
2019-05-13T23:25:01.465Z,103226.79
2019-05-13T23:29:25.006Z,103226.79
2019-05-13T23:33:48.823Z,103223.92
2019-05-13T23:38:12.895Z,103215.84
2019-05-13T23:42:36.784Z,103217.81
2019-05-13T23:47:00.583Z,103219.64
2019-05-13T23:51:24.619Z,103225.31
2019-05-13T23:55:48.764Z,103221.12
